Time;durP1;ratioP1;P1;durP2;ratioP2;P2;SDS_P1;SDS_P2;PMS_P1;PMS_P2;Temp;Humidity;BMP_temperature;BMP_pressure;BME280_temperature;BME280_humidity;BME280_pressure;Samples;Min_cycle;Max_cycle;Signal;HPM_P1;HPM_P2
2023/11/27 05:48:59;;;;;;;6.40;4.50;;;;;;;37.91;23.27;97025.27;101609;1295;615178;-58
2023/11/27 05:51:26;;;;;;;4.50;3.60;;;;;;;36.77;21.63;97022.15;103828;1270;61875;-59
2023/11/27 05:53:55;;;;;;;6.90;4.30;;;;;;;36.71;19.90;97025.14;103842;1285;59677;-58
2023/11/27 05:56:23;;;;;;;4.20;3.80;;;;;;;37.09;33.86;97027.40;103752;1270;72146;-60
2023/11/27 05:58:50;;;;;;;;;;;;;;;36.84;19.65;97024.45;103902;1265;70338;-58
2023/11/27 06:01:17;;;;;;;4.40;3.60;;;;;;;36.70;20.35;97018.09;104115;1261;286837;-58
2023/11/27 06:03:43;;;;;;;5.00;4.50;;;;;;;36.28;19.19;97036.19;104864;1254;60875;-59
2023/11/27 06:06:11;;;;;;;4.30;3.90;;;;;;;36.09;18.87;97025.83;104933;1254;60019;-59
2023/11/27 06:08:38;;;;;;;4.60;4.20;;;;;;;35.79;18.59;97027.95;104867;1253;71893;-59
2023/11/27 06:11:05;;;;;;;5.10;4.50;;;;;;;35.79;18.91;97040.10;104596;1277;69689;-60
2023/11/27 06:13:32;;;;;;;4.50;3.90;;;;;;;35.91;17.99;97039.84;104650;1254;72477;-58
2023/11/27 06:15:59;;;;;;;6.10;4.20;;;;;;;35.46;18.18;97050.12;104332;1260;61035;-59
2023/11/27 06:18:26;;;;;;;4.60;4.00;;;;;;;35.49;17.67;97042.34;104454;1257;59926;-60
2023/11/27 06:20:53;;;;;;;4.40;4.00;;;;;;;35.49;17.53;97037.63;104355;1263;73294;-59
2023/11/27 06:23:20;;;;;;;5.10;3.60;;;;;;;35.56;16.54;97028.77;104648;1257;70067;-61
2023/11/27 06:25:47;;;;;;;5.50;4.10;;;;;;;37.01;15.03;97028.48;104391;1259;72777;-59
2023/11/27 06:28:15;;;;;;;4.50;4.10;;;;;;;36.64;14.97;97037.70;104420;1254;60945;-58
2023/11/27 06:30:42;;;;;;;4.70;4.20;;;;;;;36.40;14.60;97039.41;104436;1257;61208;-59
2023/11/27 06:33:09;;;;;;;6.00;4.00;;;;;;;36.08;14.18;97036.56;104318;1267;73641;-59
2023/11/27 06:35:36;;;;;;;3.90;3.50;;;;;;;35.60;13.52;97038.71;104699;1254;69518;-58
2023/11/27 06:38:03;;;;;;;5.80;3.90;;;;;;;35.60;13.52;97039.27;104187;1262;72814;-58
2023/11/27 06:40:30;;;;;;;4.60;4.10;;;;;;;35.38;13.68;97051.24;104580;1254;60919;-61
2023/11/27 06:43:12;;;;;;;4.30;3.90;;;;;;;35.22;13.42;97053.70;104331;1258;59961;-58
2023/11/27 06:45:39;;;;;;;4.40;4.00;;;;;;;35.16;13.07;97050.91;104526;1263;75178;-58
2023/11/27 06:48:06;;;;;;;6.40;3.80;;;;;;;35.41;13.16;97054.49;104884;1263;69854;-59
2023/11/27 06:50:33;;;;;;;6.30;3.80;;;;;;;35.46;12.81;97054.11;104573;1273;73128;-59
2023/11/27 06:53:00;;;;;;;8.50;4.50;;;;;;;35.78;12.90;97067.70;104657;1253;61049;-59
2023/11/27 06:55:27;;;;;;;4.50;4.10;;;;;;;35.91;17.24;97064.70;104647;1254;59938;-60
2023/11/27 06:57:55;;;;;;;5.00;3.90;;;;;;;35.97;13.19;97063.10;104346;1258;73823;-61
2023/11/27 07:00:23;;;;;;;3.10;2.90;;;;;;;35.79;12.73;97060.91;104453;1258;69535;-59
2023/11/27 07:02:50;;;;;;;5.30;4.00;;;;;;;35.96;13.40;97072.96;104850;1254;73049;-59
2023/11/27 07:05:18;;;;;;;4.20;3.70;;;;;;;36.10;13.02;97072.40;104529;1268;60591;-60
2023/11/27 07:07:45;;;;;;;7.00;4.30;;;;;;;36.18;12.85;97072.14;104299;1256;60015;-60
2023/11/27 07:10:13;;;;;;;5.00;4.20;;;;;;;36.20;13.12;97074.20;104519;1255;73112;-60
2023/11/27 07:12:40;;;;;;;4.10;3.70;;;;;;;36.67;12.62;97068.29;104915;1256;68607;-59
2023/11/27 07:15:10;;;;;;;4.80;4.00;;;;;;;36.73;12.33;97074.17;104699;1253;73700;-60
2023/11/27 07:17:38;;;;;;;5.30;4.60;;;;;;;36.61;12.48;97075.49;104981;1254;60944;-58
2023/11/27 07:20:06;;;;;;;5.10;4.20;;;;;;;36.80;13.10;97076.69;104552;1263;59784;-58
2023/11/27 07:25:17;;;;;;;4.30;3.60;;;;;;;31.66;15.92;97106.69;101395;1305;601149;-57
2023/11/27 07:27:49;;;;;;;4.60;4.20;;;;;;;35.96;13.66;97097.02;104089;1269;60554;-58
2023/11/27 07:30:17;;;;;;;4.30;3.90;;;;;;;35.80;12.23;97103.73;104552;1269;59761;-58
2023/11/27 07:32:45;;;;;;;4.50;4.10;;;;;;;35.77;12.28;97111.02;103854;1271;71835;-57
2023/11/27 07:35:13;;;;;;;5.10;4.00;;;;;;;35.60;12.70;97108.39;104072;1267;69020;-58
2023/11/27 07:37:42;;;;;;;;;;;;;;;35.55;16.76;97123.14;103764;1266;349757;-61
2023/11/27 07:40:14;;;;;;;4.70;4.20;;;;;;;35.98;17.02;97120.71;104309;1264;60773;-59
2023/11/27 07:42:43;;;;;;;4.70;4.00;;;;;;;35.26;15.02;97119.59;104340;1269;59656;-58
2023/11/27 19:41:25;;;;;;;6.80;4.50;;;;;;;9.60;30.93;98048.34;101427;1296;601897;-63
2023/11/27 19:43:53;;;;;;;5.10;4.60;;;;;;;10.61;28.61;98041.63;103820;1267;60322;-61
2023/11/27 19:46:21;;;;;;;5.20;4.60;;;;;;;10.36;28.65;98042.67;103753;1267;59908;-61
2023/11/27 19:48:50;;;;;;;5.70;4.40;;;;;;;10.40;28.74;98044.30;103831;1266;71075;-60
2023/11/27 19:51:18;;;;;;;5.50;4.10;;;;;;;10.28;28.81;98051.77;103801;1267;70258;-61
2023/11/27 19:53:46;;;;;;;6.30;5.10;;;;;;;10.16;28.81;98053.91;103624;1267;73381;-60
2023/11/27 19:56:14;;;;;;;6.00;4.40;;;;;;;10.10;28.90;98059.02;103894;1269;342582;-61
2023/11/27 19:58:42;;;;;;;5.60;4.50;;;;;;;10.02;28.77;98059.94;104381;1264;60619;-62
2023/11/27 20:01:12;;;;;;;6.00;4.20;;;;;;;10.00;28.97;98065.48;104659;1264;74988;-62
2023/11/27 20:03:40;;;;;;;6.20;4.40;;;;;;;9.86;29.03;98065.83;104189;1266;68478;-62
2023/11/27 20:06:08;;;;;;;4.10;3.70;;;;;;;9.73;29.11;98065.63;104178;1279;71599;-61
2023/11/27 20:08:37;;;;;;;4.50;3.70;;;;;;;9.71;29.38;98072.95;103845;1279;62408;-63
2023/11/27 20:11:05;;;;;;;4.20;3.80;;;;;;;9.68;29.47;98081.00;104047;1269;59820;-63
2023/11/27 20:13:38;;;;;;;4.50;4.00;;;;;;;9.68;29.24;98078.06;103648;1272;74663;-61
2023/11/27 20:16:07;;;;;;;4.60;3.70;;;;;;;9.57;29.19;98078.02;104044;1268;70268;-62
2023/11/27 20:18:35;;;;;;;4.60;4.00;;;;;;;9.54;29.38;98080.14;104236;1269;75813;-63
2023/11/27 20:21:03;;;;;;;5.00;4.30;;;;;;;9.51;29.65;98079.46;104120;1263;60128;-63
2023/11/27 20:23:31;;;;;;;3.90;3.10;;;;;;;9.81;29.23;98080.89;104467;1264;59799;-62
2023/11/27 20:25:59;;;;;;;4.40;3.90;;;;;;;9.67;29.39;98086.84;104555;1264;73241;-63
2023/11/27 20:28:26;;;;;;;9.70;4.10;;;;;;;9.76;29.46;98088.59;104207;1270;69405;-63
2023/11/27 20:30:54;;;;;;;;;;;;;;;9.93;29.37;98092.88;104219;1266;72737;-62
2023/11/27 20:33:41;;;;;;;8.40;4.10;;;;;;;9.92;29.08;98091.55;103825;1269;59764;-62
2023/11/27 20:36:09;;;;;;;4.80;4.40;;;;;;;9.87;29.26;98096.41;103883;1262;59643;-63
2023/11/27 20:38:37;;;;;;;4.60;3.80;;;;;;;9.94;29.21;98102.45;104093;1264;73882;-63
2023/11/27 20:41:05;;;;;;;4.90;3.90;;;;;;;10.07;29.05;98100.55;103909;1285;70116;-62
2023/11/27 20:43:33;;;;;;;5.10;4.20;;;;;;;10.15;28.99;98098.78;103844;1269;72795;-62
2023/11/27 20:46:01;;;;;;;5.00;4.20;;;;;;;10.15;28.93;98101.45;103832;1264;60331;-61
2023/11/27 20:48:29;;;;;;;6.10;4.70;;;;;;;10.20;28.76;98100.94;104003;1264;59758;-63
2023/11/27 20:50:56;;;;;;;4.90;4.20;;;;;;;10.27;28.93;98097.34;103877;1264;73257;-62
2023/11/27 20:53:25;;;;;;;;;;;;;;;10.28;28.99;98096.90;103942;1270;70117;-63
2023/11/27 20:55:52;;;;;;;7.40;4.80;;;;;;;10.38;28.88;98111.00;106950;1262;73399;-62
2023/11/27 20:58:20;;;;;;;4.90;4.30;;;;;;;10.33;29.85;98112.38;104013;1268;60396;-62
2023/11/27 21:00:48;;;;;;;5.60;4.70;;;;;;;10.33;29.19;98110.64;104435;1267;60745;-62
2023/11/27 21:03:16;;;;;;;9.10;4.20;;;;;;;10.27;29.58;98109.39;104015;1264;72842;-62
2023/11/27 21:05:44;;;;;;;7.40;4.90;;;;;;;10.23;29.57;98120.20;104026;1268;69269;-63
2023/11/27 21:08:14;;;;;;;6.70;5.20;;;;;;;10.18;29.52;98122.79;104080;1263;72490;-62
2023/11/27 21:10:42;;;;;;;5.10;4.40;;;;;;;10.09;29.70;98129.82;103803;1264;60197;-62
2023/11/27 21:13:10;;;;;;;6.40;5.30;;;;;;;10.04;29.51;98129.66;104176;1264;59787;-62
2023/11/27 21:15:38;;;;;;;6.60;5.90;;;;;;;9.76;29.64;98133.85;106145;1263;73202;-64
2023/11/27 21:18:06;;;;;;;;;;;;;;;9.63;30.14;98133.30;107748;1257;69160;-64
2023/11/27 21:20:34;;;;;;;6.90;5.20;;;;;;;9.71;29.91;98136.95;107697;1257;73298;-64
2023/11/27 21:23:04;;;;;;;5.90;4.70;;;;;;;9.80;29.81;98132.20;107653;1256;60158;-63
2023/11/27 21:25:32;;;;;;;;;;;;;;;9.82;29.70;98134.02;104242;1259;60345;-61
2023/11/27 21:28:01;;;;;;;6.80;5.40;;;;;;;9.71;29.85;98133.46;104693;1255;72886;-61
2023/11/27 21:30:29;;;;;;;6.90;5.30;;;;;;;9.78;29.74;98134.80;104297;1274;69756;-61
2023/11/27 21:32:57;;;;;;;6.10;5.40;;;;;;;9.75;29.77;98138.50;104637;1259;72368;-62
2023/11/27 21:35:24;;;;;;;6.10;5.20;;;;;;;9.70;29.70;98142.83;104391;1257;59881;-61
2023/11/27 21:37:52;;;;;;;5.70;5.10;;;;;;;9.69;29.52;98138.84;104590;1271;59832;-60
2023/11/27 21:40:22;;;;;;;6.40;4.80;;;;;;;9.66;29.72;98142.89;104224;1260;72055;-61
2023/11/27 21:42:49;;;;;;;6.50;5.00;;;;;;;9.73;29.57;98142.83;104268;1257;69554;-61
2023/11/27 21:45:17;;;;;;;5.60;5.10;;;;;;;9.61;29.49;98146.18;104499;1257;72559;-63
2023/11/27 21:47:45;;;;;;;;;;;;;;;9.52;29.54;98144.82;104244;1258;60210;-62
2023/11/27 21:50:13;;;;;;;6.30;5.10;;;;;;;9.49;29.69;98146.96;104229;1262;60446;-61
2023/11/27 21:52:41;;;;;;;7.60;4.90;;;;;;;9.35;29.67;98149.90;104664;1257;73792;-61
2023/11/27 21:55:09;;;;;;;11.00;5.10;;;;;;;9.17;29.58;98151.69;104553;1260;69302;-62
2023/11/27 21:57:39;;;;;;;6.30;5.20;;;;;;;9.10;29.67;98147.90;104085;1257;72426;-60
